createdAt,value
2019-04-06T04:32:39.005Z,52.37
2019-04-06T04:35:08.220Z,51.70
2019-04-06T04:37:37.467Z,46.27
2019-04-06T04:40:07.931Z,57.97
2019-04-06T04:42:37.462Z,57.70
2019-04-06T04:45:07.265Z,50.00
2019-04-06T04:47:36.297Z,53.33
2019-04-06T04:50:06.878Z,45.63
2019-04-06T04:52:35.852Z,47.27
2019-04-06T04:55:05.418Z,55.00
2019-04-06T04:57:40.014Z,44.90
2019-04-06T05:00:06.481Z,50.13
2019-04-06T05:02:35.656Z,47.57
2019-04-06T05:05:05.167Z,41.50
2019-04-06T05:07:34.214Z,50.17
2019-04-06T05:10:03.310Z,44.93
2019-04-06T05:12:32.240Z,45.20
2019-04-06T05:15:03.463Z,50.57
2019-04-06T05:17:32.696Z,50.57
2019-04-06T05:20:01.885Z,47.03
2019-04-06T05:22:31.071Z,46.97
2019-04-06T05:25:00.248Z,55.03
2019-04-06T05:27:30.485Z,54.00
2019-04-06T05:29:59.962Z,50.63
2019-04-06T05:32:29.222Z,58.93
2019-04-06T05:34:58.721Z,52.43
2019-04-06T05:37:28.217Z,44.37
2019-04-06T05:39:57.861Z,59.50
2019-04-06T05:42:27.133Z,52.97
2019-04-06T05:44:56.900Z,53.93
2019-04-06T05:47:26.269Z,64.60
2019-04-06T05:49:55.261Z,54.27
2019-04-06T05:52:24.352Z,55.17
2019-04-06T05:54:53.510Z,56.77
2019-04-06T05:57:22.714Z,55.93
2019-04-06T05:59:51.831Z,55.40
2019-04-06T06:02:21.298Z,49.17
2019-04-06T06:04:50.662Z,48.70
2019-04-06T06:07:20.220Z,54.77
2019-04-06T06:09:49.453Z,46.57
2019-04-06T06:12:19.539Z,46.80
2019-04-06T06:14:48.922Z,45.83
2019-04-06T06:17:17.945Z,50.53
2019-04-06T06:19:48.388Z,46.37
2019-04-06T06:22:19.886Z,51.77
2019-04-06T06:24:49.354Z,54.67
2019-04-06T06:27:18.374Z,49.63
2019-04-06T06:29:49.114Z,46.63
2019-04-06T06:32:18.660Z,45.10
2019-04-06T06:34:48.759Z,44.00
2019-04-06T06:37:18.022Z,45.33
2019-04-06T06:39:47.167Z,50.43
2019-04-06T06:42:16.189Z,48.13
2019-04-06T06:44:46.143Z,56.63
2019-04-06T06:47:16.702Z,43.80
2019-04-06T06:49:47.080Z,50.83
2019-04-06T06:52:16.401Z,51.70
2019-04-06T06:54:45.543Z,48.77
2019-04-06T06:57:14.999Z,55.10
2019-04-06T06:59:46.170Z,52.50
2019-04-06T07:02:16.145Z,54.27
2019-04-06T07:04:45.100Z,55.33
2019-04-06T07:07:14.526Z,58.47
2019-04-06T07:09:44.022Z,59.77
2019-04-06T07:12:13.299Z,56.00
2019-04-06T07:14:42.444Z,60.93
2019-04-06T07:17:11.400Z,59.40
2019-04-06T07:19:40.482Z,67.10
2019-04-06T07:22:09.509Z,58.97
2019-04-06T07:24:39.125Z,61.87
2019-04-06T07:27:09.635Z,53.90
2019-04-06T07:29:39.253Z,61.43
2019-04-06T07:32:08.330Z,56.03
2019-04-06T07:34:37.354Z,54.30
2019-04-06T07:37:06.368Z,55.17
2019-04-06T07:39:35.884Z,64.70
2019-04-06T07:42:05.148Z,52.60
2019-04-06T07:44:34.623Z,56.87
2019-04-06T07:47:05.262Z,58.67
2019-04-06T07:49:34.769Z,52.40
2019-04-06T07:52:04.653Z,58.07
2019-04-06T07:54:36.010Z,68.93
2019-04-06T07:57:05.741Z,53.23
2019-04-06T07:59:35.753Z,51.23
2019-04-06T08:02:05.096Z,51.30
2019-04-06T08:04:34.354Z,45.83
2019-04-06T08:07:03.494Z,47.83
2019-04-06T08:09:32.557Z,51.97
2019-04-06T08:12:01.846Z,49.73
2019-04-06T08:14:30.884Z,57.80
2019-04-06T08:16:59.898Z,40.40
2019-04-06T08:19:29.015Z,44.80
2019-04-06T08:21:58.103Z,45.30
2019-04-06T08:24:27.097Z,48.50
2019-04-06T08:26:56.143Z,44.93
2019-04-06T08:29:25.144Z,48.77
2019-04-06T08:31:54.247Z,45.23
2019-04-06T08:34:23.309Z,44.60
2019-04-06T08:36:52.410Z,40.93
2019-04-06T08:39:21.446Z,50.43
2019-04-06T08:41:50.518Z,49.33
2019-04-06T08:44:19.651Z,53.13
2019-04-06T08:46:48.740Z,52.40
2019-04-06T08:49:18.062Z,40.97
2019-04-06T08:51:47.308Z,42.77
2019-04-06T08:54:16.459Z,43.53
2019-04-06T08:56:45.591Z,43.57
2019-04-06T08:59:14.642Z,39.60
2019-04-06T09:01:43.634Z,40.27
2019-04-06T09:04:12.746Z,39.43
2019-04-06T09:06:41.790Z,43.27
2019-04-06T09:09:10.923Z,43.00
2019-04-06T09:11:39.947Z,43.17
2019-04-06T09:14:08.887Z,39.77
2019-04-06T09:16:37.980Z,41.80
2019-04-06T09:19:06.903Z,39.33
2019-04-06T09:21:35.902Z,39.23
2019-04-06T09:24:04.958Z,39.00
2019-04-06T09:26:33.970Z,39.90
2019-04-06T09:29:03.134Z,38.60
2019-04-06T09:31:32.309Z,35.10
2019-04-06T09:34:01.514Z,35.43
2019-04-06T09:36:30.508Z,35.67
2019-04-06T09:38:59.580Z,31.90
2019-04-06T09:41:28.827Z,38.50
2019-04-06T09:43:57.822Z,31.73
2019-04-06T09:46:51.849Z,32.00
2019-04-06T09:49:38.400Z,24.83
2019-04-06T09:52:44.686Z,27.63
2019-04-06T09:55:26.379Z,30.50
2019-04-06T09:58:11.500Z,25.10
2019-04-06T10:00:59.565Z,30.83
2019-04-06T10:03:44.262Z,26.37
2019-04-06T10:06:21.808Z,22.90
2019-04-06T10:09:13.034Z,23.77
2019-04-06T10:11:56.228Z,25.43
2019-04-06T10:14:33.030Z,23.07
2019-04-06T10:17:30.010Z,25.97
2019-04-06T10:20:10.634Z,23.57
2019-04-06T10:22:59.396Z,25.23
2019-04-06T10:25:52.970Z,21.00
2019-04-06T10:28:40.066Z,20.30
2019-04-06T10:31:40.223Z,21.73
2019-04-06T10:34:28.476Z,22.50
2019-04-06T10:37:15.537Z,20.00
2019-04-06T10:39:52.695Z,23.80
2019-04-06T10:42:46.931Z,23.90
2019-04-06T10:45:32.627Z,19.93
2019-04-06T10:48:23.712Z,21.63
2019-04-06T10:51:00.757Z,21.53
2019-04-06T10:53:51.656Z,20.47
2019-04-06T10:56:34.347Z,20.80
2019-04-06T10:59:22.566Z,18.33
2019-04-06T11:02:09.447Z,25.67
2019-04-06T11:04:49.554Z,24.10
2019-04-06T11:07:30.272Z,24.60
2019-04-06T11:10:18.857Z,23.90
2019-04-06T11:13:03.284Z,21.03
2019-04-06T11:15:58.045Z,25.80
2019-04-06T11:18:44.927Z,21.70
2019-04-06T11:21:27.207Z,22.60
2019-04-06T11:24:18.407Z,24.67
2019-04-06T11:27:06.941Z,27.73
2019-04-06T11:29:55.251Z,33.57
2019-04-06T11:32:33.556Z,27.63
2019-04-06T11:35:13.067Z,18.80
2019-04-06T11:37:59.811Z,24.77
2019-04-06T11:40:39.026Z,20.37
2019-04-06T11:43:39.313Z,18.67
2019-04-06T11:46:22.277Z,20.73
2019-04-06T11:48:57.643Z,18.57
2019-04-06T11:51:33.450Z,19.20
2019-04-06T11:54:21.095Z,23.83
2019-04-06T11:57:10.177Z,26.43
2019-04-06T11:59:52.319Z,25.30
2019-04-06T12:02:38.765Z,21.07
2019-04-06T12:05:15.287Z,23.03
2019-04-06T12:08:03.345Z,22.57
2019-04-06T12:10:54.495Z,21.73
2019-04-06T12:13:51.805Z,21.50
2019-04-06T12:16:42.546Z,19.43
2019-04-06T12:19:32.918Z,21.90
2019-04-06T12:22:19.843Z,18.40
2019-04-06T12:25:16.914Z,20.60
2019-04-06T12:28:04.846Z,19.60
2019-04-06T12:31:01.963Z,22.30
2019-04-06T12:34:02.480Z,16.93
2019-04-06T12:36:56.407Z,17.50
2019-04-06T12:39:52.546Z,17.57
2019-04-06T12:42:25.983Z,18.13
2019-04-06T12:45:17.195Z,20.13
2019-04-06T12:48:17.427Z,14.67
2019-04-06T12:51:00.978Z,17.20
2019-04-06T12:53:58.416Z,14.27
2019-04-06T12:56:44.978Z,14.07
2019-04-06T12:59:34.719Z,13.27
2019-04-06T13:02:20.182Z,12.50
2019-04-06T13:05:06.748Z,9.77
2019-04-06T13:07:57.688Z,11.13
2019-04-06T13:10:32.910Z,12.20
2019-04-06T13:13:23.950Z,11.53
2019-04-06T13:16:21.583Z,10.13
2019-04-06T13:19:08.056Z,8.13
2019-04-06T13:21:54.791Z,9.37
2019-04-06T13:24:33.743Z,8.17
2019-04-06T13:27:25.270Z,10.10
2019-04-06T13:30:06.413Z,9.10
2019-04-06T13:33:00.608Z,12.13
2019-04-06T13:35:51.780Z,11.33
2019-04-06T13:38:40.080Z,11.47
2019-04-06T13:41:34.410Z,9.23
2019-04-06T13:44:28.590Z,10.60
2019-04-06T13:47:15.051Z,9.07
2019-04-06T13:50:15.497Z,14.00
2019-04-06T13:52:54.957Z,11.53
2019-04-06T13:55:49.043Z,9.43
2019-04-06T13:58:24.514Z,7.50
2019-04-06T14:01:17.590Z,8.20
2019-04-06T14:04:08.154Z,11.37
2019-04-06T14:07:05.422Z,8.90
2019-04-06T14:09:43.029Z,7.60
2019-04-06T14:12:49.464Z,9.17
2019-04-06T14:15:40.643Z,9.50
2019-04-06T14:18:27.245Z,11.60
2019-04-06T14:21:12.578Z,7.20
2019-04-06T14:24:03.804Z,7.87
2019-04-06T14:26:54.265Z,7.00
2019-04-06T14:29:38.493Z,7.77
2019-04-06T14:32:26.554Z,8.87
2019-04-06T14:35:02.746Z,10.07
2019-04-06T14:37:51.403Z,7.00
2019-04-06T14:40:34.551Z,6.43
2019-04-06T14:43:21.514Z,7.53
2019-04-06T14:46:09.601Z,6.80
2019-04-06T14:48:56.484Z,7.60
2019-04-06T14:51:40.870Z,8.90
2019-04-06T14:54:28.055Z,9.13
2019-04-06T14:57:12.386Z,9.20
2019-04-06T15:00:04.943Z,10.87
2019-04-06T15:02:44.125Z,8.57
2019-04-06T15:05:35.346Z,8.97
2019-04-06T15:08:35.928Z,10.10
2019-04-06T15:11:18.201Z,8.90
2019-04-06T15:14:04.983Z,9.57
2019-04-06T15:17:05.076Z,9.03
2019-04-06T15:19:41.618Z,8.10
2019-04-06T15:22:28.673Z,7.43
2019-04-06T15:25:16.877Z,9.00
2019-04-06T15:28:05.270Z,7.93
2019-04-06T15:31:08.339Z,8.80
2019-04-06T15:33:46.270Z,8.53
2019-04-06T15:36:34.102Z,8.53
2019-04-06T15:39:11.416Z,7.47
2019-04-06T15:41:57.592Z,8.70
2019-04-06T15:44:37.916Z,9.67
2019-04-06T15:47:29.937Z,6.93
2019-04-06T15:50:17.034Z,8.90
2019-04-06T15:53:03.828Z,7.10
2019-04-06T15:55:44.494Z,8.60
2019-04-06T15:58:24.901Z,6.03
2019-04-06T16:01:30.882Z,9.40
2019-04-06T16:04:21.782Z,10.17
2019-04-06T16:07:01.061Z,7.93
2019-04-06T16:09:55.427Z,11.00
2019-04-06T16:12:30.605Z,6.50
2019-04-06T16:15:37.032Z,9.97
2019-04-06T16:18:12.003Z,7.17
2019-04-06T16:21:05.759Z,8.00
2019-04-06T16:23:44.451Z,9.57
2019-04-06T16:26:23.559Z,9.80
2019-04-06T16:29:10.094Z,7.37
2019-04-06T16:32:12.515Z,7.27
2019-04-06T16:34:45.140Z,10.90
2019-04-06T16:37:20.892Z,6.23
2019-04-06T16:40:07.922Z,6.57
2019-04-06T16:42:50.927Z,9.67
2019-04-06T16:45:42.213Z,12.73
2019-04-06T16:48:33.384Z,6.60
2019-04-06T16:51:18.002Z,8.83
2019-04-06T16:53:53.457Z,8.97
2019-04-06T16:56:44.579Z,9.40
2019-04-06T16:59:31.989Z,10.33
2019-04-06T17:02:22.541Z,8.10
2019-04-06T17:04:59.651Z,9.10
2019-04-06T17:07:46.472Z,8.53
2019-04-06T17:10:40.569Z,8.40
2019-04-06T17:13:29.256Z,11.47
2019-04-06T17:16:35.410Z,8.87
2019-04-06T17:19:20.245Z,8.47
2019-04-06T17:22:14.446Z,7.73
2019-04-06T17:25:01.844Z,8.25
2019-04-06T17:27:44.505Z,12.40
2019-04-06T17:30:22.452Z,10.37
2019-04-06T17:33:17.472Z,16.23
2019-04-06T17:36:10.059Z,7.63
2019-04-06T17:39:04.063Z,11.90
2019-04-06T17:41:52.441Z,8.83
2019-04-06T17:44:39.079Z,8.23
2019-04-06T17:47:33.663Z,11.13
2019-04-06T17:50:20.803Z,8.17
2019-04-06T17:53:02.760Z,7.73
2019-04-06T17:55:50.898Z,9.67
2019-04-06T17:58:39.677Z,9.80
2019-04-06T18:01:27.766Z,8.53
2019-04-06T18:04:27.607Z,8.77
2019-04-06T18:07:12.121Z,8.83
2019-04-06T18:09:52.052Z,6.63
2019-04-06T18:12:44.093Z,8.23
2019-04-06T18:15:13.354Z,5.50
2019-04-06T18:17:42.365Z,7.00
2019-04-06T18:20:11.657Z,9.10
2019-04-06T18:22:40.619Z,6.50
2019-04-06T18:25:09.679Z,6.50
2019-04-06T18:27:38.691Z,6.90
2019-04-06T18:30:09.062Z,6.50
2019-04-06T18:32:57.096Z,7.80
2019-04-06T18:35:16.659Z,8.73
2019-04-06T18:38:00.439Z,9.20
2019-04-06T18:40:30.537Z,10.90
2019-04-06T18:42:59.831Z,7.37
2019-04-06T18:45:31.419Z,6.30
2019-04-06T18:48:01.351Z,7.93
2019-04-06T18:50:35.988Z,6.40
2019-04-06T18:53:01.242Z,7.93
2019-04-06T18:55:30.433Z,4.97
2019-04-06T18:58:08.835Z,4.10
2019-04-06T19:00:30.216Z,5.23
2019-04-06T19:03:11.206Z,5.10
2019-04-06T19:05:30.062Z,5.43
2019-04-06T19:07:59.269Z,4.30
2019-04-06T19:10:28.395Z,4.20
2019-04-06T19:12:57.590Z,5.40
2019-04-06T19:15:26.849Z,4.87
2019-04-06T19:17:56.306Z,4.13
2019-04-06T19:20:25.682Z,5.73
2019-04-06T19:22:54.833Z,4.20
2019-04-06T19:25:23.988Z,6.23
2019-04-06T19:27:53.508Z,5.83
2019-04-06T19:30:22.783Z,4.50
2019-04-06T19:32:52.307Z,7.13
2019-04-06T19:35:21.358Z,5.57
2019-04-06T19:37:50.548Z,5.67
2019-04-06T19:40:19.829Z,7.13
2019-04-06T19:42:48.924Z,5.40
2019-04-06T19:45:18.169Z,5.53
2019-04-06T19:47:47.191Z,11.87
2019-04-06T19:50:16.564Z,6.33
2019-04-06T19:52:45.832Z,9.87
2019-04-06T19:55:15.066Z,8.70
2019-04-06T19:57:44.097Z,9.53
2019-04-06T20:00:13.442Z,6.00
2019-04-06T20:02:42.491Z,6.33
2019-04-06T20:05:12.262Z,7.07
2019-04-06T20:07:42.616Z,8.33
2019-04-06T20:10:12.843Z,5.50
2019-04-06T20:12:42.508Z,6.20
2019-04-06T20:15:12.490Z,7.37
2019-04-06T20:17:41.420Z,6.17
2019-04-06T20:20:10.951Z,5.57
2019-04-06T20:22:40.125Z,6.10
2019-04-06T20:25:10.245Z,6.37
2019-04-06T20:27:39.772Z,5.63
2019-04-06T20:30:09.552Z,6.23
2019-04-06T20:32:39.155Z,5.30
2019-04-06T20:35:09.293Z,6.43
2019-04-06T20:37:38.977Z,5.37
2019-04-06T20:40:10.283Z,7.90
2019-04-06T20:42:39.617Z,4.30
2019-04-06T20:45:09.289Z,5.47
2019-04-06T20:47:40.142Z,4.00
2019-04-06T20:50:09.507Z,5.90
2019-04-06T20:52:38.562Z,4.40
2019-04-06T20:55:08.949Z,3.73
2019-04-06T20:57:38.378Z,3.60
2019-04-06T21:00:08.531Z,6.90
2019-04-06T21:02:37.705Z,3.83
2019-04-06T21:05:07.848Z,3.70
2019-04-06T21:07:37.262Z,4.77
2019-04-06T21:10:08.781Z,4.23
2019-04-06T21:12:38.579Z,6.37
2019-04-06T21:15:17.859Z,4.20
2019-04-06T21:17:40.176Z,4.70
2019-04-06T21:20:09.387Z,3.60
2019-04-06T21:22:38.594Z,4.50
2019-04-06T21:25:08.418Z,5.03
2019-04-06T21:27:37.655Z,4.10
2019-04-06T21:30:08.274Z,5.33
2019-04-06T21:32:37.319Z,3.97
2019-04-06T21:35:07.132Z,6.40
2019-04-06T21:37:36.888Z,3.43
2019-04-06T21:40:06.778Z,3.53
2019-04-06T21:42:36.487Z,3.73
2019-04-06T21:45:06.422Z,3.00
2019-04-06T21:47:35.947Z,2.60
2019-04-06T21:50:05.843Z,5.10
2019-04-06T21:52:35.269Z,2.77
2019-04-06T21:55:05.046Z,2.67
2019-04-06T21:57:34.846Z,4.10
2019-04-06T22:00:06.131Z,2.57
2019-04-06T22:02:35.469Z,3.43
2019-04-06T22:05:05.579Z,2.67
2019-04-06T22:07:47.265Z,2.57
2019-04-06T22:10:06.446Z,3.37
2019-04-06T22:12:35.574Z,2.90
2019-04-06T22:15:05.895Z,3.10
2019-04-06T22:17:35.900Z,3.10
2019-04-06T22:20:05.674Z,2.53
2019-04-06T22:22:35.403Z,2.50
2019-04-06T22:25:05.821Z,1.67
2019-04-06T22:27:34.988Z,3.57
